This is the latest recevied weather packets stored in our database for station/object E22ZMG-3. If no packets are shown the sender has not sent any weather packets the latest 10 day(s).
| Time | Temp. | Humidity | Pressure | Rain* | Wind** | Luminosity | Snow |
|---|---|---|---|---|---|---|---|
| 1777713540 | 41.11° C | 23% | 970 hPa | - | - | 0 W/m² | - |
| 1777712916 | 41.67° C | 23% | 970 hPa | - | - | 0 W/m² | - |
| 1777712290 | 41.67° C | 24% | 970 hPa | - | - | 0 W/m² | - |
| 1777711665 | 41.11° C | 23% | 970 hPa | - | - | 0 W/m² | - |
| 1777711041 | 41.11° C | 24% | 971 hPa | - | - | 0 W/m² | - |
| 1777710417 | 40.56° C | 24% | 971 hPa | - | - | 0 W/m² | - |
| 1777709792 | 41.11° C | 25% | 971 hPa | - | - | 0 W/m² | - |
| 1777709167 | 40.56° C | 26% | 971 hPa | - | - | 0 W/m² | - |
| 1777708541 | 40.56° C | 25% | 971 hPa | - | - | 0 W/m² | - |
| 1777707916 | 40° C | 26% | 971 hPa | - | - | 0 W/m² | - |
| 1777707292 | 41.11° C | 25% | 971 hPa | - | - | 0 W/m² | - |
| 1777706667 | 40° C | 26% | 972 hPa | - | - | 0 W/m² | - |
| 1777706043 | 41.67° C | 24% | 972 hPa | - | - | 0 W/m² | - |
| 1777705418 | 41.67° C | 25% | 972 hPa | - | - | 0 W/m² | - |
| 1777704794 | 42.22° C | 25% | 972 hPa | - | - | 0 W/m² | - |
| 1777704169 | 41.67° C | 25% | 973 hPa | - | - | 0 W/m² | - |
| 1777703544 | 40° C | 28% | 973 hPa | - | - | 0 W/m² | - |
| 1777702919 | 39.44° C | 29% | 973 hPa | - | - | 0 W/m² | - |
| 1777702514 | 38.89° C | 29% | 973 hPa | - | - | 0 W/m² | - |
| 1777701888 | 41.11° C | 26% | 974 hPa | - | - | 0 W/m² | - |
| 1777701263 | 40.56° C | 27% | 974 hPa | - | - | 0 W/m² | - |
| 1777700639 | 39.44° C | 29% | 974 hPa | - | - | 0 W/m² | - |
| 1777700014 | 41.11° C | 28% | 974 hPa | - | - | 0 W/m² | - |
| 1777699390 | 40.56° C | 29% | 974 hPa | - | - | 0 W/m² | - |
| 1777698765 | 38.89° C | 30% | 975 hPa | - | - | 0 W/m² | - |
* Rain since midnight (hover to see other rain measurements)
** Current wind speed in m/s (hover to see current wind gust speed)